Time;durP1;ratioP1;P1;durP2;ratioP2;P2;SDS_P1;SDS_P2;PMS_P1;PMS_P2;Temp;Humidity;BMP_temperature;BMP_pressure;BME280_temperature;BME280_humidity;BME280_pressure;Samples;Min_cycle;Max_cycle;Signal;HPM_P1;HPM_P2
2021/04/02 00:01:29;;;;;;;7.37;4.83;;;;;;;0.81;92.16;101690.09;5096953;28;20190;-71
2021/04/02 00:03:54;;;;;;;13.77;5.00;;;;;;;0.77;92.14;101685.72;5096339;28;20201;-72
2021/04/02 00:06:20;;;;;;;8.20;4.57;;;;;;;0.83;92.23;101683.97;5096053;28;20295;-72
2021/04/02 00:08:45;;;;;;;7.00;4.83;;;;;;;0.82;91.95;101679.59;5097688;28;20238;-72
2021/04/02 00:11:11;;;;;;;9.13;5.20;;;;;;;0.82;92.13;101679.59;5097763;28;20179;-72
2021/04/02 00:13:48;;;;;;;10.23;5.47;;;;;;;0.75;92.50;101680.47;5098504;28;20611;-72
2021/04/02 00:16:16;;;;;;;8.57;5.40;;;;;;;0.70;92.12;101676.94;5097473;28;20526;-71
2021/04/02 00:18:41;;;;;;;11.00;5.57;;;;;;;0.65;92.61;101675.19;5097084;28;20665;-72
2021/04/02 00:21:08;;;;;;;10.33;5.40;;;;;;;0.64;93.30;101669.06;5097142;28;20300;-71
2021/04/02 00:23:35;;;;;;;9.07;5.20;;;;;;;0.60;93.03;101668.19;5097363;28;20178;-72
2021/04/02 00:26:01;;;;;;;10.37;5.73;;;;;;;0.57;92.76;101664.66;5096559;28;20194;-72
2021/04/02 00:28:26;;;;;;;10.33;5.33;;;;;;;0.53;92.89;101655.91;5095374;28;20550;-70
2021/04/02 00:30:55;;;;;;;14.50;5.80;;;;;;;0.51;92.94;101667.28;5096754;28;20180;-72
2021/04/02 00:33:23;;;;;;;7.93;5.60;;;;;;;0.56;92.89;101662.91;5097044;28;20180;-71
2021/04/02 00:35:48;;;;;;;8.43;6.17;;;;;;;0.61;93.89;101663.78;5095737;28;20174;-71
2021/04/02 00:38:14;;;;;;;8.10;4.90;;;;;;;0.55;93.28;101661.16;5095569;28;20266;-71
2021/04/02 00:41:00;;;;;;;10.50;4.83;;;;;;;0.49;92.54;101669.03;5095568;28;20171;-72
2021/04/02 00:43:29;;;;;;;7.13;3.80;;;;;;;0.30;91.78;101663.75;5099893;28;20154;-71
2021/04/02 00:45:54;;;;;;;4.83;3.60;;;;;;;0.21;92.25;101666.34;5103966;28;20202;-72
2021/04/02 00:48:20;;;;;;;7.50;3.83;;;;;;;0.26;92.53;101661.97;5099453;28;20519;-72
2021/04/02 00:50:57;;;;;;;5.77;4.53;;;;;;;0.31;92.82;101662.88;5097904;28;20176;-72
2021/04/02 00:53:25;;;;;;;8.27;4.23;;;;;;;0.27;92.77;101666.34;5097827;28;20192;-72
2021/04/02 00:55:51;;;;;;;5.33;4.13;;;;;;;0.21;92.37;101665.47;5097146;28;20249;-71
2021/04/02 00:58:20;;;;;;;7.20;4.43;;;;;;;0.20;93.36;101669.84;5096244;28;20598;-72
2021/04/02 01:00:46;;;;;;;7.13;4.60;;;;;;;0.21;93.61;101663.72;5096245;28;20176;-71
2021/04/02 01:03:11;;;;;;;9.57;5.40;;;;;;;0.22;93.92;101659.34;5096228;28;20580;-71
2021/04/02 01:05:44;;;;;;;7.60;5.70;;;;;;;0.24;94.04;101657.59;5096424;28;20234;-72
2021/04/02 01:08:19;;;;;;;10.30;5.40;;;;;;;0.22;94.41;101649.72;5096185;28;20589;-71
2021/04/02 01:10:44;;;;;;;12.43;5.83;;;;;;;0.34;94.89;101654.13;5094975;28;20610;-72
2021/04/02 01:13:17;;;;;;;12.83;7.57;;;;;;;0.46;95.17;101651.53;5097198;28;20228;-71
2021/04/02 01:16:04;;;;;;;11.60;6.67;;;;;;;0.45;95.03;101641.91;5098221;28;20151;-70
2021/04/02 01:18:31;;;;;;;15.47;6.50;;;;;;;0.40;93.50;101648.03;5088632;28;20251;-73
2021/04/02 01:21:00;;;;;;;9.80;5.83;;;;;;;0.41;93.91;101644.53;5095737;28;20203;-71
2021/04/02 01:23:39;;;;;;;8.60;5.23;;;;;;;0.33;93.70;101636.59;5094640;28;20188;-71
2021/04/02 01:26:23;;;;;;;9.07;6.23;;;;;;;0.24;94.36;101637.47;5094350;28;20202;-72
2021/04/02 01:28:58;;;;;;;12.80;6.70;;;;;;;0.26;94.16;101635.72;5095123;28;20215;-72
2021/04/02 01:31:23;;;;;;;17.90;8.90;;;;;;;0.47;95.57;101636.66;5098669;28;20407;-72
2021/04/02 01:33:51;;;;;;;14.97;8.97;;;;;;;0.50;95.05;101639.28;5095088;28;20188;-72
2021/04/02 01:36:17;;;;;;;13.63;9.27;;;;;;;0.53;94.62;101636.66;5094990;28;20178;-71
2021/04/02 01:38:42;;;;;;;16.07;8.77;;;;;;;0.54;94.45;101631.41;5093987;28;20196;-71
2021/04/02 01:41:10;;;;;;;22.00;9.07;;;;;;;0.58;94.67;101637.53;5093656;28;20539;-71
2021/04/02 01:43:40;;;;;;;13.37;8.03;;;;;;;0.60;94.67;101641.03;5093718;28;20639;-71
2021/04/02 01:46:06;;;;;;;11.70;7.63;;;;;;;0.46;94.01;101637.53;5092929;28;20221;-71
2021/04/02 01:48:33;;;;;;;13.10;8.07;;;;;;;0.43;94.39;101634.91;5094014;28;20219;-71
2021/04/02 01:50:59;;;;;;;13.03;7.37;;;;;;;0.33;93.57;101641.84;5076876;28;20182;-71
2021/04/02 01:53:27;;;;;;;36.30;7.13;;;;;;;0.25;93.85;101640.97;5093454;28;20630;-71
2021/04/02 01:55:54;;;;;;;47.37;7.53;;;;;;;0.26;93.46;101633.09;5093316;28;20175;-71
2021/04/02 01:58:20;;;;;;;75.23;7.60;;;;;;;0.08;93.84;101633.06;5094397;28;20171;-72
2021/04/02 02:00:48;;;;;;;13.87;6.83;;;;;;;0.28;94.13;101633.97;5093154;28;20641;-71
2021/04/02 02:03:14;;;;;;;54.57;6.17;;;;;;;0.25;93.62;101633.97;5094247;28;20178;-71
2021/04/02 02:05:40;;;;;;;18.33;5.20;;;;;;;0.13;94.07;101631.31;5093335;28;20558;-71
2021/04/02 02:08:06;;;;;;;167.30;11.40;;;;;;;0.10;94.28;101628.69;5093268;28;20182;-71
2021/04/02 02:10:34;;;;;;;210.07;9.67;;;;;;;0.00;94.25;101629.56;5092966;28;20281;-72
2021/04/02 02:13:00;;;;;;;167.53;10.63;;;;;;;0.13;94.38;101633.06;5094360;28;20337;-71
2021/04/02 02:15:26;;;;;;;13.77;4.37;;;;;;;0.18;94.59;101633.97;5094369;28;20622;-72
2021/04/02 02:18:00;;;;;;;5.93;4.43;;;;;;;0.24;94.28;101629.59;5094018;28;20312;-72
2021/04/02 02:20:28;;;;;;;6.07;4.80;;;;;;;0.34;94.31;101626.97;5093037;28;20190;-72
2021/04/02 02:22:54;;;;;;;7.00;5.20;;;;;;;0.44;94.75;101621.75;5093388;28;20180;-72
2021/04/02 02:25:21;;;;;;;7.30;5.50;;;;;;;0.52;94.63;101622.63;5093219;28;20264;-72
2021/04/02 02:27:47;;;;;;;11.47;5.20;;;;;;;0.58;94.16;101621.75;5093906;28;20197;-72
2021/04/02 02:30:16;;;;;;;13.70;4.60;;;;;;;0.59;93.51;101628.78;5092776;28;20198;-72
2021/04/02 02:32:42;;;;;;;6.60;5.27;;;;;;;0.60;93.91;101620.88;5093964;28;20250;-72
2021/04/02 02:35:08;;;;;;;108.37;7.83;;;;;;;0.59;92.82;101620.88;5093141;28;20623;-72
2021/04/02 02:37:34;;;;;;;132.27;9.17;;;;;;;0.48;92.50;101620.00;5092799;28;20208;-72
2021/04/02 02:40:01;;;;;;;6.80;5.30;;;;;;;0.51;93.47;101618.25;5094689;28;20191;-72
2021/04/02 02:42:26;;;;;;;7.87;6.23;;;;;;;0.60;93.85;101607.75;5093348;28;20175;-70
2021/04/02 02:44:52;;;;;;;10.67;7.40;;;;;;;0.72;93.69;101606.88;5075888;28;20261;-72
2021/04/02 02:47:18;;;;;;;11.23;8.40;;;;;;;0.85;93.79;101589.34;5094368;28;20554;-72
2021/04/02 02:49:44;;;;;;;9.73;7.50;;;;;;;0.87;93.28;101595.50;5092385;28;20210;-72
2021/04/02 02:52:10;;;;;;;17.57;7.70;;;;;;;0.91;93.11;101591.97;5093683;28;20687;-71
2021/04/02 02:54:36;;;;;;;22.27;7.97;;;;;;;0.92;93.04;101588.47;5092317;28;20220;-71
2021/04/02 02:57:03;;;;;;;9.60;6.93;;;;;;;0.87;92.55;101588.47;5091488;28;20194;-71
2021/04/02 02:59:28;;;;;;;9.93;7.73;;;;;;;0.90;92.30;101582.34;5092134;28;20204;-71
2021/04/02 03:01:54;;;;;;;9.27;6.50;;;;;;;0.84;92.46;101588.47;5092291;28;20191;-71
2021/04/02 03:04:21;;;;;;;7.63;6.23;;;;;;;0.76;91.56;101574.47;5092376;28;20263;-71
2021/04/02 03:06:47;;;;;;;9.33;6.40;;;;;;;0.68;91.68;101575.34;5093532;28;20201;-71
2021/04/02 03:09:15;;;;;;;7.33;5.83;;;;;;;0.62;91.18;101584.09;5093294;28;20190;-71
2021/04/02 03:11:46;;;;;;;8.27;6.07;;;;;;;0.54;91.50;101580.59;5092198;28;20173;-71
2021/04/02 03:14:22;;;;;;;5.93;5.00;;;;;;;0.45;91.46;101578.88;5092234;28;20218;-72
2021/04/02 03:16:49;;;;;;;6.20;5.60;;;;;;;0.45;91.03;101575.38;5092180;28;20170;-71
2021/04/02 03:19:17;;;;;;;5.90;5.20;;;;;;;0.39;91.00;101578.00;5075463;28;20214;-72
2021/04/02 03:21:45;;;;;;;7.53;5.60;;;;;;;0.36;91.46;101567.44;5092607;28;20179;-71
2021/04/02 03:24:10;;;;;;;13.13;5.87;;;;;;;0.36;91.49;101560.44;5092280;28;20190;-72
2021/04/02 03:26:36;;;;;;;7.20;5.73;;;;;;;0.33;91.49;101563.06;5093241;28;20243;-72
2021/04/02 03:29:02;;;;;;;11.73;5.50;;;;;;;0.31;91.53;101564.81;5092262;28;20198;-72
2021/04/02 03:31:28;;;;;;;9.37;7.00;;;;;;;0.33;91.93;101563.06;5075115;28;20174;-72
2021/04/02 03:33:56;;;;;;;15.90;6.73;;;;;;;0.35;92.25;101569.19;5092125;28;20189;-72
2021/04/02 03:36:24;;;;;;;18.63;6.10;;;;;;;0.29;91.81;101563.94;5091859;28;20614;-72
2021/04/02 03:38:49;;;;;;;8.13;6.67;;;;;;;0.32;92.22;101567.44;5092785;28;20198;-71
2021/04/02 03:41:23;;;;;;;8.40;6.40;;;;;;;0.32;91.99;101566.56;5091814;28;20173;-72
2021/04/02 03:43:50;;;;;;;9.93;7.47;;;;;;;0.31;92.44;101564.81;5092973;28;20154;-71
2021/04/02 03:46:17;;;;;;;10.73;7.20;;;;;;;0.34;92.56;101561.31;5091682;28;20256;-72
2021/04/02 03:48:44;;;;;;;9.67;7.47;;;;;;;0.34;92.23;101558.69;5092652;28;20186;-72
2021/04/02 03:51:12;;;;;;;8.50;6.60;;;;;;;0.27;91.77;101558.69;5091665;28;20227;-72
2021/04/02 03:53:41;;;;;;;9.70;6.80;;;;;;;0.24;92.22;101563.94;5092861;28;20175;-72
2021/04/02 03:56:09;;;;;;;8.77;6.90;;;;;;;0.22;92.40;101565.69;5091564;28;20724;-72
2021/04/02 03:58:35;;;;;;;10.63;7.87;;;;;;;0.25;92.59;101559.56;5091463;28;20190;-72
2021/04/02 04:01:06;;;;;;;9.63;6.87;;;;;;;0.24;92.16;101563.94;5091533;28;20174;-72
2021/04/02 04:03:32;;;;;;;9.47;7.30;;;;;;;0.23;92.45;101556.06;5091604;28;20182;-72
2021/04/02 04:05:58;;;;;;;9.90;6.50;;;;;;;0.21;91.96;101540.31;5091889;28;20264;-72
2021/04/02 04:08:24;;;;;;;8.23;6.57;;;;;;;0.21;92.43;101540.31;5093348;28;20170;-72
2021/04/02 04:10:50;;;;;;;8.07;6.27;;;;;;;0.19;91.65;101549.06;5095549;28;20174;-71
2021/04/02 04:13:17;;;;;;;12.10;6.87;;;;;;;0.10;91.59;101539.44;5095403;28;20173;-72
2021/04/02 04:15:43;;;;;;;9.13;6.97;;;;;;;0.07;91.92;101535.94;5095795;28;20166;-72
2021/04/02 04:18:11;;;;;;;8.20;6.60;;;;;;;0.04;91.57;101539.44;5095657;28;20175;-71
2021/04/02 04:20:37;;;;;;;14.30;6.43;;;;;;;-0.01;91.32;101538.53;5095157;28;20182;-72
2021/04/02 04:23:02;;;;;;;7.73;6.40;;;;;;;-0.02;91.47;101539.41;5096892;28;20177;-71
2021/04/02 04:25:28;;;;;;;9.90;7.00;;;;;;;-0.02;92.07;101539.41;5095172;28;20198;-72
2021/04/02 04:27:55;;;;;;;20.47;7.77;;;;;;;0.03;92.55;101539.44;5095106;28;20190;-71
2021/04/02 04:30:22;;;;;;;11.40;7.90;;;;;;;0.08;92.59;101549.06;5078560;28;20187;-71
2021/04/02 04:32:48;;;;;;;10.87;8.27;;;;;;;0.13;92.09;101543.81;5095179;28;20257;-72
2021/04/02 04:35:15;;;;;;;10.17;7.80;;;;;;;0.14;91.83;101549.06;5095120;28;20182;-71
2021/04/02 04:37:41;;;;;;;10.53;8.03;;;;;;;0.15;92.16;101542.06;5078188;28;20263;-72
2021/04/02 04:40:08;;;;;;;10.23;7.50;;;;;;;0.15;92.50;101545.56;5095840;28;20678;-71
2021/04/02 04:42:35;;;;;;;10.97;8.50;;;;;;;0.17;92.12;101541.19;5095030;28;20178;-72
2021/04/02 04:45:03;;;;;;;19.97;8.67;;;;;;;0.19;91.91;101542.06;5096118;28;20170;-72
2021/04/02 04:47:28;;;;;;;11.93;8.23;;;;;;;0.17;91.55;101541.19;5094707;28;20205;-72
2021/04/02 04:49:53;;;;;;;10.13;7.90;;;;;;;0.16;92.27;101543.81;5094751;28;20199;-71
2021/04/02 04:52:20;;;;;;;12.40;8.87;;;;;;;0.20;92.46;101542.94;5096118;28;20599;-71
2021/04/02 04:54:46;;;;;;;14.83;9.43;;;;;;;0.26;91.75;101542.94;5095225;28;20581;-72
2021/04/02 04:57:12;;;;;;;10.37;8.07;;;;;;;0.30;91.68;101545.56;5095143;28;20189;-71
2021/04/02 04:59:39;;;;;;;17.30;8.30;;;;;;;0.37;91.13;101545.56;5094623;28;20190;-71
2021/04/02 05:02:06;;;;;;;14.93;8.67;;;;;;;0.37;90.33;101548.19;5077492;28;20178;-71
2021/04/02 05:04:31;;;;;;;15.80;8.43;;;;;;;0.35;91.12;101545.56;5095585;28;20171;-71
2021/04/02 05:07:00;;;;;;;17.60;9.63;;;;;;;0.42;91.09;101541.22;5095780;28;20251;-71
2021/04/02 05:09:26;;;;;;;13.37;9.10;;;;;;;0.42;90.76;101533.34;5094438;28;20196;-71
2021/04/02 05:11:53;;;;;;;10.77;8.53;;;;;;;0.41;90.89;101531.59;5095277;28;20185;-72
2021/04/02 05:14:19;;;;;;;21.70;8.27;;;;;;;0.44;90.36;101535.09;5094144;28;20181;-71
2021/04/02 05:16:45;;;;;;;8.90;6.63;;;;;;;0.31;90.20;101533.31;5094138;28;20167;-72
2021/04/02 05:19:11;;;;;;;15.77;7.80;;;;;;;0.43;90.43;101532.47;5094317;28;20190;-72
2021/04/02 05:21:40;;;;;;;30.67;8.40;;;;;;;0.50;89.64;101527.19;5095287;28;20175;-72
2021/04/02 05:24:07;;;;;;;19.87;7.87;;;;;;;0.56;89.74;101521.06;5095520;28;20178;-71
2021/04/02 05:26:32;;;;;;;11.70;8.13;;;;;;;0.61;89.80;101525.44;5093956;28;20209;-71
2021/04/02 05:28:58;;;;;;;12.60;8.40;;;;;;;0.69;90.46;101520.16;5094752;28;20206;-71
2021/04/02 05:31:24;;;;;;;11.33;8.43;;;;;;;0.75;90.03;101520.19;5095153;28;20178;-72
2021/04/02 05:33:49;;;;;;;18.83;8.80;;;;;;;0.80;89.46;101517.53;5095234;28;20171;-70
2021/04/02 05:36:15;;;;;;;12.53;8.50;;;;;;;0.85;89.47;101500.88;5095322;28;20215;-71
2021/04/02 05:38:40;;;;;;;12.27;8.27;;;;;;;0.86;89.57;101505.25;5095712;28;20183;-69
2021/04/02 05:41:13;;;;;;;11.67;8.83;;;;;;;0.88;89.97;101500.00;5094546;28;20181;-69
2021/04/02 05:43:55;;;;;;;13.03;9.07;;;;;;;0.99;90.17;101500.81;5094596;28;20297;-71
2021/04/02 05:46:23;;;;;;;11.90;8.97;;;;;;;1.10;89.80;101511.28;5094616;28;20191;-70
2021/04/02 05:48:57;;;;;;;12.37;8.93;;;;;;;1.11;89.10;101510.41;5093517;28;20255;-70
2021/04/02 05:51:23;;;;;;;29.83;8.73;;;;;;;1.16;88.94;101511.31;5093430;28;20160;-69
2021/04/02 05:53:49;;;;;;;14.73;8.77;;;;;;;1.16;89.47;101506.91;5093337;28;20171;-69
2021/04/02 05:56:14;;;;;;;10.73;7.93;;;;;;;1.20;88.83;101508.66;5093212;28;20176;-69
2021/04/02 05:58:40;;;;;;;12.00;9.13;;;;;;;1.24;88.54;101505.13;5094299;28;20199;-70
2021/04/02 06:01:05;;;;;;;10.10;7.47;;;;;;;1.20;89.13;101502.53;5094763;28;20179;-70
2021/04/02 06:03:31;;;;;;;11.40;8.03;;;;;;;1.21;88.81;101501.63;5093126;28;20585;-71
2021/04/02 06:05:57;;;;;;;77.33;9.90;;;;;;;1.08;88.68;101502.53;5094242;28;20285;-70
2021/04/02 06:08:22;;;;;;;9.03;6.97;;;;;;;1.14;89.02;101502.53;5093971;28;20530;-71
2021/04/02 06:10:48;;;;;;;8.63;6.90;;;;;;;1.38;87.66;101497.16;5092954;28;20685;-70
2021/04/02 06:13:13;;;;;;;9.13;6.80;;;;;;;1.46;87.26;101494.50;5095253;28;20235;-71
2021/04/02 06:15:38;;;;;;;7.17;5.83;;;;;;;1.51;87.53;101495.38;5094437;28;20224;-70
2021/04/02 06:18:11;;;;;;;9.43;5.63;;;;;;;1.58;86.77;101499.72;5094866;28;20175;-71
2021/04/02 06:20:40;;;;;;;46.97;7.33;;;;;;;1.25;87.65;101504.25;5094286;28;20188;-70
2021/04/02 06:23:12;;;;;;;35.40;6.57;;;;;;;1.29;88.78;101501.59;5093957;28;20534;-70
2021/04/02 06:25:40;;;;;;;9.73;6.77;;;;;;;1.55;87.65;101497.09;5094015;28;20233;-70
2021/04/02 06:28:13;;;;;;;14.43;7.27;;;;;;;1.50;88.42;101498.88;5095429;28;20237;-69
2021/04/02 06:30:40;;;;;;;10.40;7.00;;;;;;;1.64;86.97;101501.44;5092988;28;20189;-70
2021/04/02 06:33:08;;;;;;;8.40;6.80;;;;;;;1.42;88.10;101498.91;5094066;28;20167;-70
2021/04/02 06:35:35;;;;;;;8.27;6.73;;;;;;;1.74;86.78;101498.72;5098578;28;20168;-69
2021/04/02 06:38:01;;;;;;;7.87;6.40;;;;;;;1.82;86.43;101494.28;5093768;28;20543;-69
2021/04/02 06:40:26;;;;;;;9.50;6.73;;;;;;;1.88;86.55;101496.03;5095173;28;20198;-69
2021/04/02 06:42:51;;;;;;;11.10;6.87;;;;;;;2.07;85.97;101494.13;5095190;28;20175;-70
2021/04/02 06:45:19;;;;;;;8.97;7.33;;;;;;;2.06;86.08;101487.97;5093012;28;20177;-70
2021/04/02 06:47:44;;;;;;;8.70;7.20;;;;;;;2.12;86.14;101477.41;5094340;28;20195;-70
2021/04/02 06:50:17;;;;;;;9.30;6.90;;;;;;;1.89;86.76;101484.59;5094528;28;20200;-70
2021/04/02 06:52:47;;;;;;;10.67;7.53;;;;;;;1.92;86.81;101481.94;5093864;28;20169;-70
2021/04/02 06:55:12;;;;;;;8.37;6.93;;;;;;;2.03;87.72;101477.47;5076510;28;20169;-70
2021/04/02 06:57:41;;;;;;;9.77;7.13;;;;;;;2.15;86.54;101477.38;5097439;28;20181;-70
2021/04/02 07:00:07;;;;;;;8.30;6.43;;;;;;;2.23;86.13;101473.78;5093757;28;20241;-70
2021/04/02 07:02:35;;;;;;;10.50;7.30;;;;;;;2.43;86.04;101482.41;5093774;28;20207;-70
2021/04/02 07:05:00;;;;;;;7.50;6.17;;;;;;;2.48;85.20;101485.88;5094381;28;20337;-70
2021/04/02 07:07:26;;;;;;;8.80;6.63;;;;;;;2.61;84.74;101482.25;5094378;28;20319;-70
2021/04/02 07:09:53;;;;;;;7.93;6.33;;;;;;;2.69;84.75;101480.41;5093901;28;20196;-70
2021/04/02 07:12:19;;;;;;;8.83;6.87;;;;;;;2.70;84.89;101482.16;5075845;28;20221;-70
2021/04/02 07:14:45;;;;;;;9.33;7.23;;;;;;;2.91;84.42;101480.16;5093824;28;20207;-70
2021/04/02 07:17:11;;;;;;;8.60;6.67;;;;;;;3.02;84.23;101473.00;5093687;28;20708;-70
2021/04/02 07:19:37;;;;;;;8.07;6.80;;;;;;;3.12;83.98;101472.00;5092613;28;20690;-70
2021/04/02 07:22:03;;;;;;;8.23;6.20;;;;;;;3.26;84.01;101464.78;5094071;28;20190;-70
2021/04/02 07:24:29;;;;;;;9.00;7.00;;;;;;;3.39;83.84;101458.47;5094754;28;20213;-70
2021/04/02 07:26:54;;;;;;;8.60;6.97;;;;;;;3.42;83.91;101463.69;5094821;28;20208;-70
2021/04/02 07:29:21;;;;;;;9.80;6.80;;;;;;;3.53;84.09;101460.03;5094471;28;20254;-70
2021/04/02 07:31:47;;;;;;;9.73;6.10;;;;;;;3.79;82.70;101467.59;5093425;28;20185;-69
2021/04/02 07:34:16;;;;;;;6.77;6.07;;;;;;;3.92;81.97;101469.13;5076095;28;20177;-70
2021/04/02 07:36:42;;;;;;;5.83;4.87;;;;;;;4.17;80.59;101453.78;5093515;28;20257;-71
2021/04/02 07:39:08;;;;;;;5.70;4.40;;;;;;;4.40;78.73;101449.81;5095615;28;20236;-71
2021/04/02 07:41:46;;;;;;;6.23;4.70;;;;;;;4.65;77.59;101458.19;5094687;28;20183;-70
2021/04/02 07:44:15;;;;;;;4.63;3.63;;;;;;;4.83;75.66;101458.72;5097569;28;20172;-71
2021/04/02 07:46:58;;;;;;;6.73;3.70;;;;;;;5.04;74.43;101450.38;5097632;28;20225;-70
2021/04/02 07:49:28;;;;;;;4.90;3.50;;;;;;;5.22;71.46;101444.72;5097699;28;20198;-70
2021/04/02 07:51:54;;;;;;;7.57;4.87;;;;;;;5.25;72.16;101447.31;5080151;28;20217;-70
2021/04/02 07:54:28;;;;;;;2.83;2.50;;;;;;;5.41;70.21;101444.31;5098695;28;20181;-71
2021/04/02 07:56:57;;;;;;;7.27;4.60;;;;;;;5.50;70.78;101447.63;5097360;28;20165;-70
2021/04/02 07:59:37;;;;;;;4.30;2.70;;;;;;;5.60;69.15;101440.38;5095330;28;20575;-70
2021/04/02 08:02:05;;;;;;;4.50;2.53;;;;;;;5.67;67.96;101447.25;5097172;28;20182;-69
2021/04/02 08:04:38;;;;;;;5.50;3.80;;;;;;;5.69;68.80;101432.19;5097748;28;20170;-71
2021/04/02 08:07:09;;;;;;;3.00;2.50;;;;;;;5.82;68.05;101425.69;5097102;28;20642;-70
2021/04/02 08:09:34;;;;;;;2.50;2.17;;;;;;;5.92;68.47;101421.06;5097006;28;20246;-70
2021/04/02 08:12:00;;;;;;;2.50;1.70;;;;;;;5.99;63.57;101441.25;5096912;28;20174;-69
2021/04/02 08:14:33;;;;;;;2.63;2.03;;;;;;;5.89;64.20;101426.41;5096763;28;20200;-69
2021/04/02 08:16:59;;;;;;;5.00;1.97;;;;;;;5.99;61.91;101437.72;5096669;28;20200;-70
2021/04/02 08:19:29;;;;;;;4.93;3.17;;;;;;;5.96;63.84;101420.13;5096378;28;20214;-70
2021/04/02 08:22:00;;;;;;;2.20;1.70;;;;;;;6.02;64.21;101414.66;5102070;28;20164;-70
2021/04/02 08:24:29;;;;;;;3.53;2.40;;;;;;;6.21;62.61;101415.06;5097635;28;20736;-70
2021/04/02 08:26:55;;;;;;;1.70;1.60;;;;;;;6.39;61.32;101411.94;5096742;28;20689;-70
2021/04/02 08:29:23;;;;;;;4.53;2.80;;;;;;;6.46;61.07;101412.66;5098420;28;20292;-70
2021/04/02 08:31:53;;;;;;;6.30;2.53;;;;;;;6.53;59.76;101399.16;5097461;28;20174;-70
2021/04/02 08:34:24;;;;;;;5.33;2.70;;;;;;;6.53;59.75;101416.88;5095730;28;20158;-70
2021/04/02 08:36:52;;;;;;;3.50;1.40;;;;;;;6.58;58.49;101414.94;5095102;28;20254;-70
2021/04/02 08:39:21;;;;;;;4.83;2.43;;;;;;;6.56;58.79;101409.69;5094697;28;20262;-70
2021/04/02 08:41:46;;;;;;;4.60;2.70;;;;;;;6.56;58.09;101399.09;5096680;28;20178;-70
2021/04/02 08:44:12;;;;;;;1.83;1.60;;;;;;;6.51;60.32;101394.81;5095805;28;20639;-70
2021/04/02 08:46:47;;;;;;;3.57;2.50;;;;;;;6.51;61.21;101408.09;5096811;28;20190;-71
2021/04/02 08:49:14;;;;;;;2.63;2.00;;;;;;;6.42;61.67;101411.84;5095812;28;20194;-70
2021/04/02 08:51:40;;;;;;;1.90;1.40;;;;;;;6.60;62.17;101407.81;5095220;28;20179;-71
2021/04/02 08:54:12;;;;;;;2.50;2.17;;;;;;;6.74;61.49;101394.19;5100217;28;20183;-70
2021/04/02 08:56:37;;;;;;;1.97;1.77;;;;;;;6.84;61.36;101391.22;5095565;28;20245;-71
2021/04/02 08:59:07;;;;;;;2.90;1.70;;;;;;;7.03;61.76;101382.72;5095015;28;20195;-71
2021/04/02 09:01:32;;;;;;;2.20;1.80;;;;;;;7.36;61.62;101372.88;5096080;28;20179;-69
2021/04/02 09:03:58;;;;;;;2.27;2.00;;;;;;;7.58;60.77;101379.25;5094850;28;20704;-71
2021/04/02 09:06:23;;;;;;;2.87;1.87;;;;;;;7.52;59.61;101392.75;5094335;28;20605;-70
2021/04/02 09:08:49;;;;;;;2.37;1.70;;;;;;;7.43;60.14;101377.06;5077479;28;20208;-70
2021/04/02 09:11:14;;;;;;;3.43;2.53;;;;;;;7.48;58.96;101369.84;5095820;28;20516;-69
2021/04/02 09:13:42;;;;;;;3.10;1.70;;;;;;;7.39;59.18;101370.13;5095529;28;20174;-71
2021/04/02 09:16:10;;;;;;;1.70;1.60;;;;;;;7.55;57.91;101366.06;5095463;28;20225;-70
2021/04/02 09:18:45;;;;;;;2.10;1.37;;;;;;;7.66;58.66;101345.34;5095512;28;20196;-70
2021/04/02 09:21:11;;;;;;;1.60;1.40;;;;;;;7.81;57.58;101342.19;5095847;28;20616;-70
2021/04/02 09:23:36;;;;;;;2.10;1.30;;;;;;;8.07;57.31;101365.22;5095629;28;20226;-70
2021/04/02 09:26:02;;;;;;;7.37;3.60;;;;;;;8.21;56.98;101335.50;5095439;28;20244;-70
2021/04/02 09:28:28;;;;;;;4.03;1.90;;;;;;;8.46;56.72;101355.00;5095273;28;20188;-71
2021/04/02 09:31:32;;;;;;;1.97;1.50;;;;;;;8.84;54.79;101346.53;5095623;28;20184;-71
2021/04/02 09:33:59;;;;;;;1.63;1.53;;;;;;;8.52;56.35;101339.75;5094862;28;20190;-71
2021/04/02 09:36:26;;;;;;;2.17;1.67;;;;;;;8.04;56.76;101338.75;5095272;28;20166;-71
2021/04/02 09:39:11;;;;;;;2.20;2.00;;;;;;;7.94;57.27;101347.09;5093912;28;20189;-71
2021/04/02 09:41:40;;;;;;;3.80;2.53;;;;;;;8.06;58.16;101333.38;5094808;28;20619;-71
2021/04/02 09:44:13;;;;;;;2.73;2.47;;;;;;;8.10;57.72;101348.28;5093323;28;20170;-71
2021/04/02 09:46:41;;;;;;;2.60;2.37;;;;;;;8.15;57.78;101325.06;5094539;28;20536;-71
2021/04/02 09:49:10;;;;;;;2.73;2.30;;;;;;;8.23;57.07;101328.34;5094833;28;20202;-71
2021/04/02 09:51:42;;;;;;;3.90;2.00;;;;;;;8.66;56.57;101321.50;5095197;28;20643;-70
2021/04/02 09:54:07;;;;;;;6.73;4.57;;;;;;;8.37;57.16;101358.00;5095001;28;20209;-71
2021/04/02 09:56:33;;;;;;;4.33;2.67;;;;;;;8.15;56.63;101312.63;5094572;28;20181;-70
2021/04/02 09:58:59;;;;;;;4.30;2.73;;;;;;;7.90;57.59;101310.91;5094501;28;20561;-70
2021/04/02 10:01:24;;;;;;;3.00;2.40;;;;;;;8.09;58.12;101314.66;5094467;28;20182;-71
2021/04/02 10:03:50;;;;;;;3.23;2.20;;;;;;;8.40;55.57;101310.00;5094916;28;20176;-70
2021/04/02 10:06:15;;;;;;;3.03;2.40;;;;;;;8.27;56.19;101324.66;5093717;28;20207;-71
2021/04/02 10:08:41;;;;;;;3.67;2.67;;;;;;;8.25;56.70;101307.88;5094925;28;20200;-70
2021/04/02 10:11:06;;;;;;;3.30;2.60;;;;;;;8.57;57.03;101335.16;5093300;28;20185;-70
2021/04/02 10:13:31;;;;;;;4.33;2.90;;;;;;;8.92;54.04;101310.75;5093085;28;20604;-70
2021/04/02 10:15:57;;;;;;;4.80;2.73;;;;;;;8.90;55.11;101285.94;5094138;28;20177;-71
2021/04/02 10:18:22;;;;;;;3.83;2.93;;;;;;;9.11;54.66;101296.72;5093006;28;20169;-70
2021/04/02 10:20:48;;;;;;;2.83;2.53;;;;;;;9.29;55.41;101302.19;5094689;28;20201;-71
2021/04/02 10:23:13;;;;;;;3.57;2.60;;;;;;;9.45;54.43;101317.53;5093178;28;20273;-71
2021/04/02 10:25:38;;;;;;;4.23;2.43;;;;;;;8.63;56.37;101310.97;5076412;28;20170;-70
2021/04/02 10:28:04;;;;;;;3.13;2.67;;;;;;;8.60;56.35;101289.81;5094130;28;20553;-71
2021/04/02 10:30:30;;;;;;;3.47;2.83;;;;;;;8.80;55.77;101286.38;5095113;28;20209;-71
2021/04/02 10:32:55;;;;;;;3.83;2.33;;;;;;;9.70;54.63;101283.63;5094876;28;20657;-71
2021/04/02 10:35:20;;;;;;;3.67;2.53;;;;;;;9.83;51.39;101282.16;5094461;28;20185;-71
2021/04/02 10:37:46;;;;;;;3.47;2.83;;;;;;;9.84;52.62;101288.34;5100359;28;20166;-71
2021/04/02 10:40:12;;;;;;;2.73;2.30;;;;;;;9.44;54.41;101298.03;5094712;28;20193;-71
2021/04/02 10:42:37;;;;;;;2.80;2.40;;;;;;;8.44;59.30;101287.69;5093416;28;20578;-72
2021/04/02 10:45:04;;;;;;;3.00;2.30;;;;;;;8.05;60.47;101283.78;5094331;28;20181;-71
2021/04/02 10:47:29;;;;;;;3.10;2.50;;;;;;;7.72;60.69;101292.00;5093822;28;20206;-71
2021/04/02 10:49:54;;;;;;;4.43;2.97;;;;;;;7.14;63.46;101303.66;5093008;28;20197;-70
2021/04/02 10:52:20;;;;;;;5.30;3.40;;;;;;;7.09;64.55;101289.66;5094113;28;20630;-71
2021/04/02 10:54:45;;;;;;;5.57;3.40;;;;;;;6.86;64.33;101295.66;5093850;28;20257;-71
2021/04/02 10:57:10;;;;;;;4.87;3.30;;;;;;;7.24;62.59;101322.81;5093574;28;20304;-70
2021/04/02 10:59:36;;;;;;;5.40;3.30;;;;;;;6.52;64.46;101309.91;5093822;28;20336;-70
2021/04/02 11:02:01;;;;;;;7.37;4.00;;;;;;;6.16;66.21;101308.28;5093600;28;20170;-71
2021/04/02 11:04:26;;;;;;;6.50;4.33;;;;;;;5.56;67.42;101291.25;5093149;28;20533;-70
2021/04/02 11:06:52;;;;;;;5.77;3.90;;;;;;;5.75;66.63;101312.84;5093986;28;20676;-70
2021/04/02 11:09:17;;;;;;;6.97;3.90;;;;;;;5.76;66.43;101319.03;5093404;28;20235;-70
2021/04/02 11:11:42;;;;;;;4.87;3.30;;;;;;;5.58;65.38;101325.66;5093873;28;20174;-70
2021/04/02 11:14:07;;;;;;;5.20;4.00;;;;;;;5.32;66.51;101326.28;5093181;28;20172;-70
2021/04/02 11:16:33;;;;;;;5.27;3.77;;;;;;;5.08;66.24;101346.22;5093326;28;20178;-70
2021/04/02 11:18:58;;;;;;;6.27;4.40;;;;;;;5.30;65.95;101326.31;5096969;28;20201;-70
2021/04/02 11:21:23;;;;;;;7.43;4.93;;;;;;;5.48;65.04;101351.47;5097874;28;20587;-69
2021/04/02 11:23:49;;;;;;;5.50;4.20;;;;;;;5.33;64.17;101326.25;5097798;28;20170;-70
2021/04/02 11:26:15;;;;;;;6.50;4.13;;;;;;;5.18;65.10;101334.50;5097536;28;20201;-70
2021/04/02 11:28:40;;;;;;;7.87;3.93;;;;;;;4.93;66.45;101336.84;5097248;28;20358;-71
2021/04/02 11:31:06;;;;;;;7.37;4.77;;;;;;;5.21;65.58;101320.38;5097101;28;20207;-70